< < Back
Terminal Aerodrome Forecast


Current Version              Previous Versions:   1  2  3  4  5  6  7  8  9  

Terminal Aerodrome Forecast

725
FTUS42 KILM 280538
TAFILM
TAF
KILM 280538Z 2806/2906 16003KT P6SM SCT025
     FM281300 17007KT P6SM SCT030
     FM281800 14010KT P6SM SCT250
     FM290100 15005KT P6SM SKC=



Latest METAR

525
SAUS70 KWBC 281600 RRC
MTRILM
METAR KILM 281553Z AUTO 08004KT 10SM CLR 27/17 A3025 RMK AO2 SLP244
T02720172


USA.gov is the U.S. government's official web portal to all federal, state and local government web resources and services.